sensor_id;sensor_type;location;lat;lon;timestamp;P1;durP1;ratioP1;P2;durP2;ratioP2
10641;SDS011;5369;49.586;8.646;2022-08-19T00:00:20;18.23;;;16.33;;
10641;SDS011;5369;49.586;8.646;2022-08-19T00:02:46;16.83;;;15.23;;
10641;SDS011;5369;49.586;8.646;2022-08-19T00:05:12;16.53;;;14.90;;
10641;SDS011;5369;49.586;8.646;2022-08-19T00:07:40;15.00;;;13.60;;
10641;SDS011;5369;49.586;8.646;2022-08-19T00:10:07;15.33;;;13.93;;
10641;SDS011;5369;49.586;8.646;2022-08-19T00:12:33;15.90;;;14.37;;
10641;SDS011;5369;49.586;8.646;2022-08-19T00:15:01;15.83;;;14.30;;
10641;SDS011;5369;49.586;8.646;2022-08-19T00:17:27;16.47;;;14.80;;
10641;SDS011;5369;49.586;8.646;2022-08-19T00:19:53;16.63;;;15.13;;
10641;SDS011;5369;49.586;8.646;2022-08-19T00:22:19;17.83;;;15.93;;
10641;SDS011;5369;49.586;8.646;2022-08-19T00:24:45;16.17;;;14.60;;
10641;SDS011;5369;49.586;8.646;2022-08-19T00:27:12;16.60;;;14.80;;
10641;SDS011;5369;49.586;8.646;2022-08-19T00:29:39;16.07;;;14.47;;
10641;SDS011;5369;49.586;8.646;2022-08-19T00:32:05;15.83;;;14.23;;
10641;SDS011;5369;49.586;8.646;2022-08-19T00:34:31;16.27;;;14.57;;
10641;SDS011;5369;49.586;8.646;2022-08-19T00:36:58;15.77;;;14.27;;
10641;SDS011;5369;49.586;8.646;2022-08-19T00:39:24;16.80;;;14.83;;
10641;SDS011;5369;49.586;8.646;2022-08-19T00:41:51;16.47;;;14.83;;
10641;SDS011;5369;49.586;8.646;2022-08-19T00:44:20;16.10;;;13.83;;
10641;SDS011;5369;49.586;8.646;2022-08-19T00:46:46;17.30;;;15.57;;
10641;SDS011;5369;49.586;8.646;2022-08-19T00:49:17;16.63;;;14.93;;
10641;SDS011;5369;49.586;8.646;2022-08-19T00:51:45;15.53;;;14.07;;
10641;SDS011;5369;49.586;8.646;2022-08-19T00:54:12;17.17;;;15.50;;
10641;SDS011;5369;49.586;8.646;2022-08-19T00:56:38;16.00;;;14.40;;
10641;SDS011;5369;49.586;8.646;2022-08-19T00:59:05;16.27;;;14.63;;
10641;SDS011;5369;49.586;8.646;2022-08-19T01:01:40;18.73;;;16.83;;
10641;SDS011;5369;49.586;8.646;2022-08-19T01:04:07;18.10;;;16.33;;
10641;SDS011;5369;49.586;8.646;2022-08-19T01:06:35;18.30;;;16.53;;
10641;SDS011;5369;49.586;8.646;2022-08-19T01:09:02;17.83;;;16.10;;
10641;SDS011;5369;49.586;8.646;2022-08-19T01:11:29;16.50;;;14.93;;
10641;SDS011;5369;49.586;8.646;2022-08-19T01:13:57;16.90;;;15.30;;
10641;SDS011;5369;49.586;8.646;2022-08-19T01:16:23;16.83;;;15.23;;
10641;SDS011;5369;49.586;8.646;2022-08-19T01:18:50;17.63;;;15.93;;
10641;SDS011;5369;49.586;8.646;2022-08-19T01:23:46;18.67;;;16.83;;
10641;SDS011;5369;49.586;8.646;2022-08-19T01:26:14;19.20;;;17.30;;
10641;SDS011;5369;49.586;8.646;2022-08-19T01:28:41;18.30;;;16.40;;
10641;SDS011;5369;49.586;8.646;2022-08-19T01:31:09;18.20;;;15.87;;
10641;SDS011;5369;49.586;8.646;2022-08-19T01:33:36;19.23;;;16.87;;
10641;SDS011;5369;49.586;8.646;2022-08-19T01:36:04;15.87;;;14.20;;
10641;SDS011;5369;49.586;8.646;2022-08-19T01:38:30;17.30;;;15.40;;
10641;SDS011;5369;49.586;8.646;2022-08-19T01:40:56;18.03;;;15.57;;
10641;SDS011;5369;49.586;8.646;2022-08-19T01:43:23;16.60;;;14.87;;
10641;SDS011;5369;49.586;8.646;2022-08-19T01:45:49;16.97;;;15.37;;
10641;SDS011;5369;49.586;8.646;2022-08-19T01:48:16;16.93;;;15.30;;
10641;SDS011;5369;49.586;8.646;2022-08-19T01:50:42;16.77;;;15.07;;
10641;SDS011;5369;49.586;8.646;2022-08-19T01:53:10;17.73;;;16.03;;
10641;SDS011;5369;49.586;8.646;2022-08-19T01:55:38;17.73;;;16.00;;
10641;SDS011;5369;49.586;8.646;2022-08-19T01:58:04;17.53;;;15.83;;
10641;SDS011;5369;49.586;8.646;2022-08-19T02:00:31;17.77;;;16.00;;
10641;SDS011;5369;49.586;8.646;2022-08-19T02:02:58;18.00;;;16.20;;
10641;SDS011;5369;49.586;8.646;2022-08-19T02:05:26;17.77;;;15.97;;
10641;SDS011;5369;49.586;8.646;2022-08-19T02:07:54;17.80;;;16.03;;
10641;SDS011;5369;49.586;8.646;2022-08-19T02:10:21;16.67;;;14.97;;
10641;SDS011;5369;49.586;8.646;2022-08-19T02:12:48;16.67;;;15.10;;
10641;SDS011;5369;49.586;8.646;2022-08-19T02:15:15;17.53;;;15.77;;
10641;SDS011;5369;49.586;8.646;2022-08-19T02:17:41;16.87;;;15.27;;
10641;SDS011;5369;49.586;8.646;2022-08-19T02:20:08;16.00;;;14.40;;
10641;SDS011;5369;49.586;8.646;2022-08-19T02:22:34;17.70;;;15.90;;
10641;SDS011;5369;49.586;8.646;2022-08-19T02:25:01;18.80;;;15.80;;
10641;SDS011;5369;49.586;8.646;2022-08-19T02:27:27;18.83;;;16.83;;
10641;SDS011;5369;49.586;8.646;2022-08-19T02:29:53;16.23;;;14.63;;
10641;SDS011;5369;49.586;8.646;2022-08-19T02:32:19;17.37;;;15.67;;
10641;SDS011;5369;49.586;8.646;2022-08-19T02:34:46;17.77;;;16.07;;
10641;SDS011;5369;49.586;8.646;2022-08-19T02:37:13;15.93;;;14.43;;
10641;SDS011;5369;49.586;8.646;2022-08-19T02:39:58;17.23;;;15.63;;
10641;SDS011;5369;49.586;8.646;2022-08-19T02:42:24;17.07;;;15.37;;
10641;SDS011;5369;49.586;8.646;2022-08-19T02:44:51;16.77;;;15.07;;
10641;SDS011;5369;49.586;8.646;2022-08-19T02:47:17;17.27;;;15.57;;
10641;SDS011;5369;49.586;8.646;2022-08-19T02:49:44;17.37;;;15.67;;
10641;SDS011;5369;49.586;8.646;2022-08-19T02:52:11;17.70;;;15.90;;
10641;SDS011;5369;49.586;8.646;2022-08-19T02:54:37;17.47;;;15.57;;
10641;SDS011;5369;49.586;8.646;2022-08-19T02:57:04;16.20;;;14.60;;
10641;SDS011;5369;49.586;8.646;2022-08-19T02:59:32;16.13;;;14.53;;
10641;SDS011;5369;49.586;8.646;2022-08-19T03:01:58;16.63;;;14.87;;
10641;SDS011;5369;49.586;8.646;2022-08-19T03:04:24;17.40;;;15.50;;
10641;SDS011;5369;49.586;8.646;2022-08-19T03:06:51;18.43;;;16.63;;
10641;SDS011;5369;49.586;8.646;2022-08-19T03:09:18;16.47;;;14.87;;
10641;SDS011;5369;49.586;8.646;2022-08-19T03:11:45;16.90;;;15.20;;
10641;SDS011;5369;49.586;8.646;2022-08-19T03:14:11;19.23;;;17.00;;
10641;SDS011;5369;49.586;8.646;2022-08-19T03:16:45;19.10;;;17.03;;
10641;SDS011;5369;49.586;8.646;2022-08-19T03:19:12;17.43;;;15.63;;
10641;SDS011;5369;49.586;8.646;2022-08-19T03:21:38;17.90;;;16.10;;
10641;SDS011;5369;49.586;8.646;2022-08-19T03:24:06;18.67;;;16.13;;
10641;SDS011;5369;49.586;8.646;2022-08-19T03:26:32;19.10;;;17.13;;
10641;SDS011;5369;49.586;8.646;2022-08-19T03:29:02;18.57;;;16.77;;
10641;SDS011;5369;49.586;8.646;2022-08-19T03:31:29;18.17;;;16.23;;
10641;SDS011;5369;49.586;8.646;2022-08-19T03:33:56;18.80;;;16.87;;
10641;SDS011;5369;49.586;8.646;2022-08-19T03:36:24;17.37;;;15.67;;
10641;SDS011;5369;49.586;8.646;2022-08-19T03:38:55;17.20;;;15.50;;
10641;SDS011;5369;49.586;8.646;2022-08-19T03:41:23;17.77;;;15.97;;
10641;SDS011;5369;49.586;8.646;2022-08-19T03:43:49;18.17;;;16.37;;
10641;SDS011;5369;49.586;8.646;2022-08-19T03:46:17;20.43;;;17.63;;
10641;SDS011;5369;49.586;8.646;2022-08-19T03:48:48;18.30;;;16.27;;
10641;SDS011;5369;49.586;8.646;2022-08-19T03:51:18;17.70;;;15.90;;
10641;SDS011;5369;49.586;8.646;2022-08-19T03:53:45;18.10;;;16.27;;
10641;SDS011;5369;49.586;8.646;2022-08-19T03:56:12;18.33;;;15.63;;
10641;SDS011;5369;49.586;8.646;2022-08-19T03:58:38;15.73;;;14.23;;
10641;SDS011;5369;49.586;8.646;2022-08-19T04:01:13;17.03;;;15.33;;
10641;SDS011;5369;49.586;8.646;2022-08-19T04:03:40;16.53;;;14.93;;
10641;SDS011;5369;49.586;8.646;2022-08-19T04:06:14;17.73;;;15.97;;
10641;SDS011;5369;49.586;8.646;2022-08-19T04:08:41;17.17;;;15.37;;
10641;SDS011;5369;49.586;8.646;2022-08-19T04:11:08;17.23;;;15.57;;
10641;SDS011;5369;49.586;8.646;2022-08-19T04:13:34;19.20;;;17.40;;
10641;SDS011;5369;49.586;8.646;2022-08-19T04:16:01;18.10;;;16.40;;
10641;SDS011;5369;49.586;8.646;2022-08-19T04:18:27;16.80;;;15.10;;
10641;SDS011;5369;49.586;8.646;2022-08-19T04:20:55;18.07;;;16.27;;
10641;SDS011;5369;49.586;8.646;2022-08-19T04:23:22;17.27;;;15.40;;
10641;SDS011;5369;49.586;8.646;2022-08-19T04:25:48;17.10;;;15.37;;
10641;SDS011;5369;49.586;8.646;2022-08-19T04:28:14;17.23;;;15.43;;
10641;SDS011;5369;49.586;8.646;2022-08-19T04:30:41;18.37;;;16.40;;
10641;SDS011;5369;49.586;8.646;2022-08-19T04:33:08;18.53;;;16.63;;
10641;SDS011;5369;49.586;8.646;2022-08-19T04:35:38;17.67;;;15.87;;
10641;SDS011;5369;49.586;8.646;2022-08-19T04:38:05;16.77;;;14.97;;
10641;SDS011;5369;49.586;8.646;2022-08-19T04:40:31;17.13;;;15.33;;
10641;SDS011;5369;49.586;8.646;2022-08-19T04:43:16;16.63;;;15.13;;
10641;SDS011;5369;49.586;8.646;2022-08-19T04:45:43;17.10;;;15.40;;
10641;SDS011;5369;49.586;8.646;2022-08-19T04:48:10;16.60;;;15.00;;
10641;SDS011;5369;49.586;8.646;2022-08-19T04:50:39;17.53;;;15.83;;
10641;SDS011;5369;49.586;8.646;2022-08-19T04:53:06;16.60;;;14.90;;
10641;SDS011;5369;49.586;8.646;2022-08-19T04:55:32;16.90;;;15.03;;
10641;SDS011;5369;49.586;8.646;2022-08-19T04:57:58;18.07;;;16.27;;
10641;SDS011;5369;49.586;8.646;2022-08-19T05:00:24;17.87;;;15.97;;
10641;SDS011;5369;49.586;8.646;2022-08-19T05:02:50;17.83;;;16.10;;
10641;SDS011;5369;49.586;8.646;2022-08-19T05:05:17;18.53;;;16.57;;
10641;SDS011;5369;49.586;8.646;2022-08-19T05:07:43;18.10;;;16.30;;
10641;SDS011;5369;49.586;8.646;2022-08-19T05:10:09;20.53;;;18.43;;
10641;SDS011;5369;49.586;8.646;2022-08-19T05:12:36;20.40;;;18.37;;
10641;SDS011;5369;49.586;8.646;2022-08-19T05:15:03;18.30;;;16.47;;
10641;SDS011;5369;49.586;8.646;2022-08-19T05:17:30;18.60;;;16.77;;
10641;SDS011;5369;49.586;8.646;2022-08-19T05:19:56;19.13;;;17.13;;
10641;SDS011;5369;49.586;8.646;2022-08-19T05:22:42;19.27;;;17.37;;
10641;SDS011;5369;49.586;8.646;2022-08-19T05:25:10;19.70;;;17.77;;
10641;SDS011;5369;49.586;8.646;2022-08-19T05:27:37;18.07;;;16.27;;
10641;SDS011;5369;49.586;8.646;2022-08-19T05:30:04;19.43;;;16.97;;
10641;SDS011;5369;49.586;8.646;2022-08-19T05:32:30;17.93;;;16.13;;
10641;SDS011;5369;49.586;8.646;2022-08-19T05:34:56;18.53;;;16.63;;
10641;SDS011;5369;49.586;8.646;2022-08-19T05:37:23;18.93;;;17.00;;
10641;SDS011;5369;49.586;8.646;2022-08-19T05:39:51;19.50;;;17.50;;
10641;SDS011;5369;49.586;8.646;2022-08-19T05:42:17;18.77;;;16.97;;
10641;SDS011;5369;49.586;8.646;2022-08-19T05:44:45;18.53;;;16.70;;
10641;SDS011;5369;49.586;8.646;2022-08-19T05:47:12;18.87;;;16.87;;
10641;SDS011;5369;49.586;8.646;2022-08-19T05:49:40;19.10;;;17.10;;
10641;SDS011;5369;49.586;8.646;2022-08-19T05:52:07;19.57;;;17.57;;
10641;SDS011;5369;49.586;8.646;2022-08-19T05:54:36;19.17;;;17.10;;
10641;SDS011;5369;49.586;8.646;2022-08-19T05:57:05;18.60;;;16.70;;
10641;SDS011;5369;49.586;8.646;2022-08-19T05:59:31;20.30;;;17.90;;
10641;SDS011;5369;49.586;8.646;2022-08-19T06:01:59;19.33;;;17.33;;
10641;SDS011;5369;49.586;8.646;2022-08-19T06:04:25;18.83;;;16.90;;
10641;SDS011;5369;49.586;8.646;2022-08-19T06:06:52;17.90;;;16.17;;
10641;SDS011;5369;49.586;8.646;2022-08-19T06:09:19;18.67;;;16.63;;
10641;SDS011;5369;49.586;8.646;2022-08-19T06:11:47;18.47;;;16.63;;
10641;SDS011;5369;49.586;8.646;2022-08-19T06:14:17;20.60;;;18.17;;
10641;SDS011;5369;49.586;8.646;2022-08-19T06:16:44;21.77;;;19.47;;
10641;SDS011;5369;49.586;8.646;2022-08-19T06:19:16;20.60;;;18.40;;
10641;SDS011;5369;49.586;8.646;2022-08-19T06:21:43;19.53;;;17.43;;
10641;SDS011;5369;49.586;8.646;2022-08-19T06:24:11;19.20;;;17.20;;
10641;SDS011;5369;49.586;8.646;2022-08-19T06:26:38;19.70;;;17.50;;
10641;SDS011;5369;49.586;8.646;2022-08-19T06:29:05;22.50;;;19.73;;
10641;SDS011;5369;49.586;8.646;2022-08-19T06:31:32;20.30;;;17.03;;
10641;SDS011;5369;49.586;8.646;2022-08-19T06:33:59;20.67;;;18.33;;
10641;SDS011;5369;49.586;8.646;2022-08-19T06:36:37;22.47;;;19.67;;
10641;SDS011;5369;49.586;8.646;2022-08-19T06:39:07;23.50;;;20.37;;
10641;SDS011;5369;49.586;8.646;2022-08-19T06:41:34;20.97;;;18.63;;
10641;SDS011;5369;49.586;8.646;2022-08-19T06:44:01;22.07;;;17.40;;
10641;SDS011;5369;49.586;8.646;2022-08-19T06:46:28;18.80;;;16.87;;
10641;SDS011;5369;49.586;8.646;2022-08-19T06:48:55;18.23;;;16.43;;
10641;SDS011;5369;49.586;8.646;2022-08-19T06:51:22;19.87;;;17.80;;
10641;SDS011;5369;49.586;8.646;2022-08-19T06:53:49;16.53;;;14.83;;
10641;SDS011;5369;49.586;8.646;2022-08-19T06:56:16;17.13;;;15.43;;
10641;SDS011;5369;49.586;8.646;2022-08-19T06:58:42;15.83;;;14.13;;
10641;SDS011;5369;49.586;8.646;2022-08-19T07:01:09;16.20;;;14.50;;
10641;SDS011;5369;49.586;8.646;2022-08-19T07:03:36;16.10;;;14.43;;
10641;SDS011;5369;49.586;8.646;2022-08-19T07:06:03;17.30;;;15.20;;
10641;SDS011;5369;49.586;8.646;2022-08-19T07:08:30;16.77;;;15.03;;
10641;SDS011;5369;49.586;8.646;2022-08-19T07:10:56;15.13;;;13.63;;
10641;SDS011;5369;49.586;8.646;2022-08-19T07:13:23;16.73;;;15.07;;
10641;SDS011;5369;49.586;8.646;2022-08-19T07:15:49;14.97;;;13.47;;
10641;SDS011;5369;49.586;8.646;2022-08-19T07:18:19;16.17;;;14.57;;
10641;SDS011;5369;49.586;8.646;2022-08-19T07:20:46;16.30;;;14.60;;
10641;SDS011;5369;49.586;8.646;2022-08-19T07:23:13;15.07;;;13.67;;
10641;SDS011;5369;49.586;8.646;2022-08-19T07:25:39;15.83;;;14.27;;
10641;SDS011;5369;49.586;8.646;2022-08-19T07:28:05;15.07;;;13.57;;
10641;SDS011;5369;49.586;8.646;2022-08-19T07:30:37;16.07;;;14.53;;
10641;SDS011;5369;49.586;8.646;2022-08-19T07:33:05;15.43;;;13.80;;
10641;SDS011;5369;49.586;8.646;2022-08-19T07:35:31;16.30;;;13.93;;
10641;SDS011;5369;49.586;8.646;2022-08-19T07:37:58;15.73;;;13.97;;
10641;SDS011;5369;49.586;8.646;2022-08-19T07:40:27;16.17;;;14.40;;
10641;SDS011;5369;49.586;8.646;2022-08-19T07:42:54;14.83;;;13.40;;
10641;SDS011;5369;49.586;8.646;2022-08-19T07:45:20;14.87;;;13.37;;
10641;SDS011;5369;49.586;8.646;2022-08-19T07:47:46;18.53;;;12.90;;
10641;SDS011;5369;49.586;8.646;2022-08-19T07:50:12;14.83;;;13.33;;
10641;SDS011;5369;49.586;8.646;2022-08-19T07:52:39;15.97;;;13.50;;
10641;SDS011;5369;49.586;8.646;2022-08-19T07:55:06;14.57;;;13.07;;
10641;SDS011;5369;49.586;8.646;2022-08-19T07:57:32;14.67;;;13.23;;
10641;SDS011;5369;49.586;8.646;2022-08-19T07:59:59;14.83;;;13.33;;
10641;SDS011;5369;49.586;8.646;2022-08-19T08:02:25;13.97;;;12.57;;
10641;SDS011;5369;49.586;8.646;2022-08-19T08:04:51;13.07;;;11.70;;
10641;SDS011;5369;49.586;8.646;2022-08-19T08:07:36;13.93;;;12.53;;
10641;SDS011;5369;49.586;8.646;2022-08-19T08:10:21;13.07;;;11.77;;
10641;SDS011;5369;49.586;8.646;2022-08-19T08:12:48;11.60;;;10.03;;
10641;SDS011;5369;49.586;8.646;2022-08-19T08:15:14;12.00;;;10.90;;
10641;SDS011;5369;49.586;8.646;2022-08-19T08:17:42;12.57;;;11.27;;
10641;SDS011;5369;49.586;8.646;2022-08-19T08:20:08;12.17;;;10.93;;
10641;SDS011;5369;49.586;8.646;2022-08-19T08:22:34;12.10;;;10.90;;
10641;SDS011;5369;49.586;8.646;2022-08-19T08:25:22;12.23;;;11.03;;
10641;SDS011;5369;49.586;8.646;2022-08-19T08:27:49;11.70;;;10.60;;
10641;SDS011;5369;49.586;8.646;2022-08-19T08:30:16;11.33;;;9.90;;
10641;SDS011;5369;49.586;8.646;2022-08-19T08:32:43;11.37;;;10.17;;
10641;SDS011;5369;49.586;8.646;2022-08-19T08:35:12;10.10;;;9.20;;
10641;SDS011;5369;49.586;8.646;2022-08-19T08:37:38;12.23;;;9.80;;
10641;SDS011;5369;49.586;8.646;2022-08-19T08:40:05;10.37;;;9.47;;
10641;SDS011;5369;49.586;8.646;2022-08-19T08:42:34;9.83;;;8.80;;
10641;SDS011;5369;49.586;8.646;2022-08-19T08:45:03;10.07;;;9.07;;
10641;SDS011;5369;49.586;8.646;2022-08-19T08:47:34;9.77;;;8.87;;
10641;SDS011;5369;49.586;8.646;2022-08-19T08:50:09;9.80;;;8.53;;
10641;SDS011;5369;49.586;8.646;2022-08-19T08:52:39;10.90;;;9.20;;
10641;SDS011;5369;49.586;8.646;2022-08-19T08:55:11;9.00;;;8.13;;
10641;SDS011;5369;49.586;8.646;2022-08-19T09:00:27;9.10;;;7.73;;
10641;SDS011;5369;49.586;8.646;2022-08-19T09:02:55;10.10;;;8.10;;
10641;SDS011;5369;49.586;8.646;2022-08-19T09:05:22;9.47;;;7.97;;
10641;SDS011;5369;49.586;8.646;2022-08-19T09:10:43;6.83;;;6.10;;
10641;SDS011;5369;49.586;8.646;2022-08-19T09:15:54;8.60;;;7.70;;
10641;SDS011;5369;49.586;8.646;2022-08-19T09:18:21;8.57;;;7.43;;
10641;SDS011;5369;49.586;8.646;2022-08-19T09:20:47;7.17;;;6.47;;
10641;SDS011;5369;49.586;8.646;2022-08-19T09:23:13;7.97;;;6.90;;
10641;SDS011;5369;49.586;8.646;2022-08-19T09:25:39;8.97;;;7.60;;
10641;SDS011;5369;49.586;8.646;2022-08-19T09:28:06;7.40;;;6.70;;
10641;SDS011;5369;49.586;8.646;2022-08-19T09:30:33;7.83;;;6.83;;
10641;SDS011;5369;49.586;8.646;2022-08-19T09:33:00;7.63;;;6.43;;
10641;SDS011;5369;49.586;8.646;2022-08-19T09:35:27;8.30;;;7.10;;
10641;SDS011;5369;49.586;8.646;2022-08-19T09:37:57;7.77;;;7.00;;
10641;SDS011;5369;49.586;8.646;2022-08-19T09:40:24;8.67;;;7.00;;
10641;SDS011;5369;49.586;8.646;2022-08-19T09:42:51;7.87;;;7.07;;
10641;SDS011;5369;49.586;8.646;2022-08-19T09:45:18;7.70;;;7.00;;
10641;SDS011;5369;49.586;8.646;2022-08-19T09:47:46;7.10;;;5.97;;
10641;SDS011;5369;49.586;8.646;2022-08-19T09:50:13;6.50;;;5.80;;
10641;SDS011;5369;49.586;8.646;2022-08-19T09:52:39;6.40;;;5.80;;
10641;SDS011;5369;49.586;8.646;2022-08-19T09:55:08;8.53;;;6.03;;
10641;SDS011;5369;49.586;8.646;2022-08-19T09:57:35;6.27;;;5.60;;
10641;SDS011;5369;49.586;8.646;2022-08-19T10:00:03;6.00;;;5.40;;
10641;SDS011;5369;49.586;8.646;2022-08-19T10:02:33;6.17;;;5.60;;
10641;SDS011;5369;49.586;8.646;2022-08-19T10:04:59;6.27;;;5.67;;
10641;SDS011;5369;49.586;8.646;2022-08-19T10:07:44;6.97;;;5.97;;
10641;SDS011;5369;49.586;8.646;2022-08-19T10:10:12;6.23;;;5.37;;
10641;SDS011;5369;49.586;8.646;2022-08-19T10:12:38;5.77;;;5.17;;
10641;SDS011;5369;49.586;8.646;2022-08-19T10:15:05;5.53;;;5.03;;
10641;SDS011;5369;49.586;8.646;2022-08-19T10:17:32;9.17;;;5.40;;
10641;SDS011;5369;49.586;8.646;2022-08-19T10:20:00;5.73;;;5.23;;
10641;SDS011;5369;49.586;8.646;2022-08-19T10:22:28;7.10;;;5.50;;
10641;SDS011;5369;49.586;8.646;2022-08-19T10:24:54;5.00;;;4.60;;
10641;SDS011;5369;49.586;8.646;2022-08-19T10:27:21;5.23;;;4.67;;
10641;SDS011;5369;49.586;8.646;2022-08-19T10:29:47;6.10;;;5.20;;
10641;SDS011;5369;49.586;8.646;2022-08-19T10:32:14;5.63;;;4.83;;
10641;SDS011;5369;49.586;8.646;2022-08-19T10:34:40;6.07;;;4.40;;
10641;SDS011;5369;49.586;8.646;2022-08-19T10:37:06;5.40;;;4.90;;
10641;SDS011;5369;49.586;8.646;2022-08-19T10:39:33;6.60;;;5.00;;
10641;SDS011;5369;49.586;8.646;2022-08-19T10:42:04;5.40;;;5.00;;
10641;SDS011;5369;49.586;8.646;2022-08-19T10:44:31;5.30;;;4.83;;
10641;SDS011;5369;49.586;8.646;2022-08-19T10:46:57;7.50;;;5.47;;
10641;SDS011;5369;49.586;8.646;2022-08-19T10:49:24;6.53;;;5.30;;
10641;SDS011;5369;49.586;8.646;2022-08-19T10:51:50;5.97;;;5.47;;
10641;SDS011;5369;49.586;8.646;2022-08-19T10:54:34;6.50;;;5.30;;
10641;SDS011;5369;49.586;8.646;2022-08-19T10:57:20;5.47;;;4.97;;
10641;SDS011;5369;49.586;8.646;2022-08-19T10:59:49;6.20;;;5.60;;
10641;SDS011;5369;49.586;8.646;2022-08-19T11:02:15;6.10;;;5.60;;
10641;SDS011;5369;49.586;8.646;2022-08-19T11:04:41;6.80;;;6.20;;
10641;SDS011;5369;49.586;8.646;2022-08-19T11:07:07;6.30;;;5.70;;
10641;SDS011;5369;49.586;8.646;2022-08-19T11:09:38;7.17;;;6.47;;
10641;SDS011;5369;49.586;8.646;2022-08-19T11:12:05;6.90;;;6.20;;
10641;SDS011;5369;49.586;8.646;2022-08-19T11:14:33;7.67;;;6.80;;
10641;SDS011;5369;49.586;8.646;2022-08-19T11:16:59;6.37;;;5.97;;
10641;SDS011;5369;49.586;8.646;2022-08-19T11:19:25;6.00;;;5.50;;
10641;SDS011;5369;49.586;8.646;2022-08-19T11:21:52;6.63;;;5.90;;
10641;SDS011;5369;49.586;8.646;2022-08-19T11:24:20;7.57;;;6.97;;
10641;SDS011;5369;49.586;8.646;2022-08-19T11:26:48;7.97;;;7.27;;
10641;SDS011;5369;49.586;8.646;2022-08-19T11:29:14;8.73;;;7.90;;
10641;SDS011;5369;49.586;8.646;2022-08-19T11:31:41;8.23;;;7.47;;
10641;SDS011;5369;49.586;8.646;2022-08-19T11:34:09;9.30;;;8.40;;
10641;SDS011;5369;49.586;8.646;2022-08-19T11:36:40;8.33;;;7.53;;
10641;SDS011;5369;49.586;8.646;2022-08-19T11:39:07;7.60;;;7.00;;
10641;SDS011;5369;49.586;8.646;2022-08-19T11:41:34;9.50;;;8.70;;
10641;SDS011;5369;49.586;8.646;2022-08-19T11:44:00;8.07;;;7.37;;
10641;SDS011;5369;49.586;8.646;2022-08-19T11:46:28;8.83;;;7.93;;
10641;SDS011;5369;49.586;8.646;2022-08-19T11:48:58;9.63;;;8.10;;
10641;SDS011;5369;49.586;8.646;2022-08-19T11:51:26;9.00;;;8.30;;
10641;SDS011;5369;49.586;8.646;2022-08-19T11:53:52;8.33;;;7.53;;
10641;SDS011;5369;49.586;8.646;2022-08-19T11:56:19;7.83;;;7.13;;
10641;SDS011;5369;49.586;8.646;2022-08-19T11:58:46;7.50;;;6.90;;
10641;SDS011;5369;49.586;8.646;2022-08-19T12:01:13;8.10;;;7.40;;
10641;SDS011;5369;49.586;8.646;2022-08-19T12:03:41;8.27;;;7.57;;
10641;SDS011;5369;49.586;8.646;2022-08-19T12:06:11;9.63;;;8.10;;
10641;SDS011;5369;49.586;8.646;2022-08-19T12:08:38;8.67;;;7.97;;
10641;SDS011;5369;49.586;8.646;2022-08-19T12:11:05;9.27;;;8.57;;
10641;SDS011;5369;49.586;8.646;2022-08-19T12:13:33;9.10;;;8.30;;
10641;SDS011;5369;49.586;8.646;2022-08-19T12:16:00;8.80;;;8.10;;
10641;SDS011;5369;49.586;8.646;2022-08-19T12:18:27;10.10;;;9.20;;
10641;SDS011;5369;49.586;8.646;2022-08-19T12:20:53;8.70;;;8.00;;
10641;SDS011;5369;49.586;8.646;2022-08-19T12:23:20;8.80;;;8.07;;
10641;SDS011;5369;49.586;8.646;2022-08-19T12:25:46;7.70;;;7.00;;
10641;SDS011;5369;49.586;8.646;2022-08-19T12:28:19;7.10;;;6.50;;
10641;SDS011;5369;49.586;8.646;2022-08-19T12:30:46;7.67;;;6.93;;
10641;SDS011;5369;49.586;8.646;2022-08-19T12:33:12;7.60;;;7.00;;
10641;SDS011;5369;49.586;8.646;2022-08-19T12:35:42;8.43;;;7.07;;
10641;SDS011;5369;49.586;8.646;2022-08-19T12:38:09;8.53;;;7.40;;
10641;SDS011;5369;49.586;8.646;2022-08-19T12:40:35;7.10;;;6.53;;
10641;SDS011;5369;49.586;8.646;2022-08-19T12:43:02;7.23;;;6.60;;
10641;SDS011;5369;49.586;8.646;2022-08-19T12:45:29;7.53;;;6.83;;
10641;SDS011;5369;49.586;8.646;2022-08-19T12:47:55;6.77;;;6.27;;
10641;SDS011;5369;49.586;8.646;2022-08-19T12:50:21;6.57;;;6.07;;
10641;SDS011;5369;49.586;8.646;2022-08-19T12:52:48;6.40;;;5.80;;
10641;SDS011;5369;49.586;8.646;2022-08-19T12:55:14;6.43;;;5.93;;
10641;SDS011;5369;49.586;8.646;2022-08-19T12:57:40;6.70;;;5.97;;
10641;SDS011;5369;49.586;8.646;2022-08-19T13:00:07;7.93;;;6.07;;
10641;SDS011;5369;49.586;8.646;2022-08-19T13:02:38;6.90;;;6.27;;
10641;SDS011;5369;49.586;8.646;2022-08-19T13:05:09;6.60;;;6.00;;
10641;SDS011;5369;49.586;8.646;2022-08-19T13:07:37;6.87;;;6.27;;
10641;SDS011;5369;49.586;8.646;2022-08-19T13:10:04;6.20;;;5.70;;
10641;SDS011;5369;49.586;8.646;2022-08-19T13:12:31;6.57;;;6.07;;
10641;SDS011;5369;49.586;8.646;2022-08-19T13:14:57;6.20;;;5.70;;
10641;SDS011;5369;49.586;8.646;2022-08-19T13:17:24;5.80;;;5.40;;
10641;SDS011;5369;49.586;8.646;2022-08-19T13:19:50;5.53;;;5.13;;
10641;SDS011;5369;49.586;8.646;2022-08-19T13:22:16;5.77;;;5.27;;
10641;SDS011;5369;49.586;8.646;2022-08-19T13:24:43;5.47;;;5.07;;
10641;SDS011;5369;49.586;8.646;2022-08-19T13:27:09;5.63;;;5.13;;
10641;SDS011;5369;49.586;8.646;2022-08-19T13:29:35;5.10;;;4.70;;
10641;SDS011;5369;49.586;8.646;2022-08-19T13:32:20;5.03;;;4.63;;
10641;SDS011;5369;49.586;8.646;2022-08-19T13:35:05;5.00;;;4.50;;
10641;SDS011;5369;49.586;8.646;2022-08-19T13:37:31;4.87;;;4.47;;
10641;SDS011;5369;49.586;8.646;2022-08-19T13:40:07;5.50;;;5.10;;
10641;SDS011;5369;49.586;8.646;2022-08-19T13:42:37;4.73;;;4.33;;
10641;SDS011;5369;49.586;8.646;2022-08-19T13:45:03;5.03;;;4.63;;
10641;SDS011;5369;49.586;8.646;2022-08-19T13:47:31;5.27;;;4.43;;
10641;SDS011;5369;49.586;8.646;2022-08-19T13:49:59;4.60;;;4.30;;
10641;SDS011;5369;49.586;8.646;2022-08-19T13:52:26;5.03;;;4.57;;
10641;SDS011;5369;49.586;8.646;2022-08-19T13:54:52;4.90;;;4.60;;
10641;SDS011;5369;49.586;8.646;2022-08-19T13:57:19;5.03;;;4.63;;
10641;SDS011;5369;49.586;8.646;2022-08-19T13:59:45;6.77;;;4.70;;
10641;SDS011;5369;49.586;8.646;2022-08-19T14:02:11;5.00;;;4.57;;
10641;SDS011;5369;49.586;8.646;2022-08-19T14:04:37;6.27;;;5.67;;
10641;SDS011;5369;49.586;8.646;2022-08-19T14:07:04;5.47;;;5.07;;
10641;SDS011;5369;49.586;8.646;2022-08-19T14:09:30;5.17;;;4.67;;
10641;SDS011;5369;49.586;8.646;2022-08-19T14:11:56;4.80;;;4.40;;
10641;SDS011;5369;49.586;8.646;2022-08-19T14:14:22;4.90;;;4.60;;
10641;SDS011;5369;49.586;8.646;2022-08-19T14:16:48;4.90;;;4.60;;
10641;SDS011;5369;49.586;8.646;2022-08-19T14:19:17;4.90;;;4.50;;
10641;SDS011;5369;49.586;8.646;2022-08-19T14:21:44;4.90;;;4.40;;
10641;SDS011;5369;49.586;8.646;2022-08-19T14:24:10;4.63;;;4.33;;
10641;SDS011;5369;49.586;8.646;2022-08-19T14:26:36;4.97;;;4.67;;
10641;SDS011;5369;49.586;8.646;2022-08-19T14:29:03;5.13;;;4.83;;
10641;SDS011;5369;49.586;8.646;2022-08-19T14:31:29;6.07;;;5.10;;
10641;SDS011;5369;49.586;8.646;2022-08-19T14:33:56;5.70;;;5.23;;
10641;SDS011;5369;49.586;8.646;2022-08-19T14:36:22;5.10;;;4.70;;
10641;SDS011;5369;49.586;8.646;2022-08-19T14:38:48;4.97;;;4.57;;
10641;SDS011;5369;49.586;8.646;2022-08-19T14:41:19;5.20;;;4.80;;
10641;SDS011;5369;49.586;8.646;2022-08-19T14:43:49;5.20;;;4.80;;
10641;SDS011;5369;49.586;8.646;2022-08-19T14:46:17;5.37;;;4.97;;
10641;SDS011;5369;49.586;8.646;2022-08-19T14:48:45;5.37;;;4.97;;
10641;SDS011;5369;49.586;8.646;2022-08-19T14:51:12;5.40;;;5.00;;
10641;SDS011;5369;49.586;8.646;2022-08-19T14:53:39;5.10;;;4.70;;
10641;SDS011;5369;49.586;8.646;2022-08-19T14:56:09;5.20;;;4.77;;
10641;SDS011;5369;49.586;8.646;2022-08-19T14:58:35;5.30;;;4.80;;